Time;durP1;ratioP1;P1;durP2;ratioP2;P2;SDS_P1;SDS_P2;PMS_P1;PMS_P2;Temp;Humidity;BMP_temperature;BMP_pressure;BME280_temperature;BME280_humidity;BME280_pressure;Samples;Min_cycle;Max_cycle;Signal;HPM_P1;HPM_P2
2021/12/01 00:00:50;;;;;;;2.20;2.10;;;4.60;97.50;;;;;;5046403;28;20057;-81
2021/12/01 00:03:17;;;;;;;2.17;1.98;;;4.60;97.50;;;;;;5048459;28;20061;-80
2021/12/01 00:05:43;;;;;;;2.40;2.20;;;4.60;97.50;;;;;;5047483;28;20166;-81
2021/12/01 00:08:11;;;;;;;2.42;2.22;;;4.60;97.50;;;;;;5047221;28;20045;-81
2021/12/01 00:10:40;;;;;;;2.03;1.92;;;4.60;97.50;;;;;;5046759;28;20069;-81
2021/12/01 00:13:09;;;;;;;2.30;2.10;;;4.60;97.60;;;;;;5046795;28;20471;-81
2021/12/01 00:15:36;;;;;;;2.58;2.28;;;4.60;97.60;;;;;;5044024;28;20052;-80
2021/12/01 00:18:03;;;;;;;2.08;1.80;;;4.60;97.60;;;;;;5048059;28;20091;-82
2021/12/01 00:20:30;;;;;;;2.25;2.03;;;4.60;97.60;;;;;;5047436;28;20052;-80
2021/12/01 00:22:58;;;;;;;2.40;2.20;;;4.60;97.60;;;;;;5049017;28;20064;-81
2021/12/01 00:25:27;;;;;;;2.63;2.42;;;4.60;97.60;;;;;;5042319;28;20057;-80
2021/12/01 00:27:56;;;;;;;2.30;2.10;;;4.60;97.60;;;;;;5047261;28;20119;-80
2021/12/01 00:30:24;;;;;;;2.28;2.17;;;4.60;97.70;;;;;;5044181;28;20920;-80
2021/12/01 00:32:53;;;;;;;2.78;2.30;;;4.60;97.70;;;;;;5048584;28;20534;-80
2021/12/01 00:35:20;;;;;;;2.30;2.10;;;4.60;97.70;;;;;;5046015;28;20056;-81
2021/12/01 00:37:47;;;;;;;1.98;1.88;;;4.60;97.70;;;;;;5040353;28;20045;-81
2021/12/01 00:40:14;;;;;;;2.35;2.10;;;4.60;97.70;;;;;;5043117;28;20061;-82
2021/12/01 00:42:42;;;;;;;2.75;1.98;;;4.60;98.00;;;;;;5042907;28;20053;-80
2021/12/01 00:45:13;;;;;;;2.20;2.10;;;4.60;97.70;;;;;;5046791;28;20053;-82
2021/12/01 00:47:43;;;;;;;2.22;2.05;;;4.70;97.70;;;;;;5042309;28;20049;-80
2021/12/01 00:50:11;;;;;;;2.15;1.98;;;4.70;97.70;;;;;;5040195;28;20057;-82
2021/12/01 00:52:38;;;;;;;2.20;2.00;;;4.70;97.70;;;;;;5040548;28;20102;-80
2021/12/01 00:55:06;;;;;;;1.80;1.70;;;4.70;97.60;;;;;;5039789;28;20053;-81
2021/12/01 00:57:33;;;;;;;1.90;1.80;;;4.70;97.60;;;;;;5047604;28;20044;-81
2021/12/01 01:00:01;;;;;;;1.98;1.88;;;4.60;97.60;;;;;;5044443;28;20138;-82
2021/12/01 01:02:28;;;;;;;1.95;1.75;;;4.70;97.60;;;;;;5041879;28;20044;-81
2021/12/01 01:04:54;;;;;;;2.30;1.98;;;4.70;97.60;;;;;;5045755;28;20048;-81
2021/12/01 01:07:21;;;;;;;1.65;1.55;;;4.70;97.60;;;;;;5045754;28;20068;-81
2021/12/01 01:09:48;;;;;;;1.90;1.80;;;4.70;97.60;;;;;;5046152;28;20086;-83
2021/12/01 01:17:52;;;;;;;1.92;1.80;;;4.70;97.50;;;;;;5043542;28;20134;-81
2021/12/01 01:20:19;;;;;;;2.00;1.80;;;4.70;97.50;;;;;;5039932;28;20050;-82
2021/12/01 01:22:45;;;;;;;2.00;1.80;;;4.70;97.50;;;;;;5040766;28;20053;-80
2021/12/01 01:25:12;;;;;;;1.90;1.80;;;4.70;97.40;;;;;;5040298;28;20075;-81
2021/12/01 01:27:39;;;;;;;1.88;1.77;;;4.70;97.40;;;;;;5042737;28;20045;-82
2021/12/01 01:30:08;;;;;;;1.90;1.80;;;4.70;97.40;;;;;;5044351;28;20048;-80
2021/12/01 01:32:35;;;;;;;1.75;1.65;;;4.70;97.40;;;;;;5022848;28;20049;-82
2021/12/01 01:35:01;;;;;;;3.22;1.70;;;4.80;97.40;;;;;;5022491;28;20049;-82
2021/12/01 01:37:28;;;;;;;1.88;1.77;;;4.70;97.40;;;;;;5022855;28;20049;-81
2021/12/01 01:39:55;;;;;;;2.10;2.00;;;4.70;97.40;;;;;;5025339;28;20112;-81
2021/12/01 01:42:22;;;;;;;1.73;1.63;;;4.70;97.40;;;;;;5020433;28;20655;-80
2021/12/01 01:44:48;;;;;;;1.92;1.83;;;4.80;97.40;;;;;;5019918;28;20045;-81
2021/12/01 01:47:16;;;;;;;1.83;1.73;;;4.80;97.40;;;;;;5018224;28;20057;-80
2021/12/01 01:49:49;;;;;;;1.83;1.73;;;4.80;97.30;;;;;;5016255;28;20076;-81
2021/12/01 01:52:16;;;;;;;1.92;1.83;;;4.80;97.40;;;;;;5022412;28;20061;-80
2021/12/01 01:54:43;;;;;;;3.53;1.98;;;4.80;97.40;;;;;;5019276;28;20776;-81
2021/12/01 01:57:09;;;;;;;2.00;1.90;;;4.80;97.30;;;;;;5024305;28;20510;-81
2021/12/01 01:59:36;;;;;;;1.95;1.85;;;4.80;97.30;;;;;;5022409;28;20053;-81
2021/12/01 02:02:04;;;;;;;1.90;1.80;;;4.80;97.30;;;;;;5022077;28;20053;-83
2021/12/01 02:04:34;;;;;;;2.00;1.90;;;4.80;97.30;;;;;;5023161;28;20145;-81
2021/12/01 02:07:01;;;;;;;2.17;1.98;;;4.80;97.30;;;;;;5026672;28;20512;-82
2021/12/01 02:09:28;;;;;;;2.38;2.00;;;4.80;97.30;;;;;;5026286;28;20057;-81
2021/12/01 02:11:58;;;;;;;2.10;1.98;;;4.80;97.30;;;;;;5026204;28;20049;-80
2021/12/01 02:14:25;;;;;;;2.40;2.08;;;4.80;97.30;;;;;;5028718;28;20049;-80
2021/12/01 02:16:53;;;;;;;2.28;2.08;;;4.80;97.30;;;;;;5024484;28;20778;-81
2021/12/01 02:19:20;;;;;;;2.22;2.00;;;4.80;97.30;;;;;;5021546;28;20065;-81
2021/12/01 02:21:48;;;;;;;2.05;1.95;;;4.90;97.30;;;;;;5021539;28;20046;-81
2021/12/01 02:24:17;;;;;;;2.10;2.00;;;4.80;97.30;;;;;;5025733;28;20407;-81
2021/12/01 02:26:47;;;;;;;2.97;2.15;;;4.80;97.30;;;;;;5030113;28;20057;-81
2021/12/01 02:29:16;;;;;;;4.20;2.08;;;4.80;97.30;;;;;;5030061;28;20073;-81
2021/12/01 02:31:44;;;;;;;3.40;1.98;;;4.80;97.30;;;;;;5028833;28;20087;-81
2021/12/01 02:34:13;;;;;;;2.15;2.00;;;4.80;97.30;;;;;;5023999;28;20057;-81
2021/12/01 02:36:41;;;;;;;2.55;2.10;;;4.90;97.30;;;;;;5030094;28;20168;-82
2021/12/01 02:39:13;;;;;;;2.30;2.10;;;4.90;97.30;;;;;;5024233;28;20100;-81
2021/12/01 02:41:40;;;;;;;2.00;1.90;;;4.90;97.30;;;;;;5025253;28;20111;-82
2021/12/01 02:44:09;;;;;;;2.10;2.00;;;4.90;97.30;;;;;;5029859;28;20049;-81
2021/12/01 02:46:37;;;;;;;2.10;1.90;;;4.90;97.30;;;;;;5035817;28;20243;-81
2021/12/01 02:49:04;;;;;;;2.45;2.15;;;4.90;97.30;;;;;;5047058;28;20052;-81
2021/12/01 02:51:32;;;;;;;1.90;1.80;;;4.90;97.30;;;;;;5050987;28;20048;-80
2021/12/01 02:54:00;;;;;;;1.88;1.77;;;4.90;97.30;;;;;;5041655;28;20057;-80
2021/12/01 02:56:29;;;;;;;2.33;1.90;;;4.90;97.30;;;;;;5046068;28;20127;-81
2021/12/01 02:58:58;;;;;;;1.92;1.83;;;4.90;97.20;;;;;;5050136;28;20049;-81
2021/12/01 03:01:25;;;;;;;2.13;1.75;;;4.90;97.20;;;;;;5045029;28;20060;-81
2021/12/01 03:03:52;;;;;;;2.13;1.92;;;4.90;97.20;;;;;;5049130;28;20049;-81
2021/12/01 03:06:20;;;;;;;2.60;2.25;;;4.90;97.20;;;;;;5045020;28;20045;-81
2021/12/01 03:08:48;;;;;;;2.17;1.92;;;4.90;97.20;;;;;;5046854;28;20055;-82
2021/12/01 03:11:16;;;;;;;1.90;1.80;;;4.90;97.10;;;;;;5046573;28;20114;-81
2021/12/01 03:13:44;;;;;;;2.17;1.95;;;5.00;97.10;;;;;;5038688;28;20468;-81
2021/12/01 03:16:11;;;;;;;1.88;1.77;;;5.00;97.10;;;;;;5033358;28;20045;-81
2021/12/01 03:18:38;;;;;;;2.35;1.83;;;4.90;97.00;;;;;;5023106;28;20050;-81
2021/12/01 03:21:05;;;;;;;2.35;1.80;;;5.00;97.10;;;;;;5028923;28;20049;-81
2021/12/01 03:23:32;;;;;;;1.90;1.80;;;5.00;97.10;;;;;;5029250;28;20052;-81
2021/12/01 03:25:59;;;;;;;1.90;1.80;;;5.00;97.00;;;;;;5026927;28;20045;-80
2021/12/01 03:28:25;;;;;;;2.05;1.95;;;5.00;97.00;;;;;;5023214;28;20049;-81
2021/12/01 03:30:53;;;;;;;2.70;2.15;;;5.00;97.00;;;;;;5027448;28;20049;-80
2021/12/01 03:33:22;;;;;;;2.45;1.75;;;5.00;97.00;;;;;;5028388;28;20136;-81
2021/12/01 03:35:50;;;;;;;1.90;1.80;;;5.00;97.00;;;;;;5028051;28;20046;-81
2021/12/01 03:38:18;;;;;;;1.90;1.80;;;5.00;97.00;;;;;;5027139;28;20045;-81
2021/12/01 03:40:46;;;;;;;2.10;1.90;;;5.00;97.00;;;;;;5024020;28;20053;-81
2021/12/01 03:43:13;;;;;;;2.38;1.98;;;5.00;97.00;;;;;;5024110;28;20057;-81
2021/12/01 03:45:40;;;;;;;2.00;1.90;;;5.10;97.00;;;;;;5029291;28;20060;-81
2021/12/01 03:48:08;;;;;;;2.60;2.10;;;5.00;97.00;;;;;;5041225;28;20049;-81
2021/12/01 03:50:36;;;;;;;2.20;2.00;;;5.10;97.00;;;;;;5046180;28;20072;-81
2021/12/01 03:53:04;;;;;;;2.08;1.95;;;5.10;97.00;;;;;;5044503;28;20052;-81
2021/12/01 03:55:31;;;;;;;2.17;2.08;;;5.00;97.00;;;;;;5042555;28;20083;-80
2021/12/01 03:57:57;;;;;;;2.17;2.08;;;5.10;97.00;;;;;;5047584;28;20044;-81
2021/12/01 04:00:24;;;;;;;1.83;1.73;;;5.10;97.00;;;;;;5047484;28;20061;-82
2021/12/01 04:02:51;;;;;;;2.22;2.03;;;5.10;97.00;;;;;;5043298;28;20052;-81
2021/12/01 04:05:20;;;;;;;2.20;1.90;;;5.10;97.00;;;;;;5047343;28;20705;-81
2021/12/01 04:07:46;;;;;;;2.22;1.83;;;5.10;97.00;;;;;;5046621;28;20487;-82
2021/12/01 04:10:16;;;;;;;1.90;1.80;;;5.10;97.00;;;;;;5042065;28;20496;-81
2021/12/01 04:12:43;;;;;;;2.35;2.15;;;5.10;97.00;;;;;;5047417;28;20053;-81
2021/12/01 04:15:12;;;;;;;1.95;1.85;;;5.10;97.00;;;;;;5042319;28;20060;-81
2021/12/01 04:17:39;;;;;;;1.95;1.85;;;5.10;97.00;;;;;;5042760;28;20102;-81
2021/12/01 04:20:08;;;;;;;2.20;1.80;;;5.10;97.00;;;;;;5045678;28;20060;-82
2021/12/01 04:22:36;;;;;;;2.53;2.10;;;5.10;97.00;;;;;;5043796;28;20045;-81
2021/12/01 04:25:03;;;;;;;2.65;1.90;;;5.20;97.00;;;;;;5039079;28;20057;-82
2021/12/01 04:27:30;;;;;;;1.80;1.70;;;5.20;97.00;;;;;;5045452;28;20124;-80
2021/12/01 04:29:57;;;;;;;1.83;1.73;;;5.20;97.00;;;;;;5048226;28;20049;-81
2021/12/01 04:32:24;;;;;;;2.13;2.03;;;5.20;97.00;;;;;;5023346;28;20052;-81
2021/12/01 04:34:51;;;;;;;1.90;1.80;;;5.20;97.00;;;;;;5023957;28;20527;-82
2021/12/01 04:37:18;;;;;;;1.80;1.70;;;5.20;97.00;;;;;;5023170;28;20053;-82
2021/12/01 04:39:47;;;;;;;1.80;1.70;;;5.20;97.00;;;;;;5019530;28;20049;-82
2021/12/01 04:42:14;;;;;;;1.80;1.60;;;5.20;97.00;;;;;;5027578;28;20111;-81
2021/12/01 04:44:41;;;;;;;1.95;1.67;;;5.20;97.00;;;;;;5028362;28;20053;-81
2021/12/01 04:47:12;;;;;;;1.60;1.50;;;5.30;97.00;;;;;;5021061;28;20054;-81
2021/12/01 04:49:40;;;;;;;2.45;1.70;;;5.30;97.00;;;;;;5026180;28;20095;-81
2021/12/01 04:52:11;;;;;;;1.67;1.58;;;5.20;97.00;;;;;;5026520;28;20061;-81
2021/12/01 04:54:38;;;;;;;1.52;1.42;;;5.30;97.00;;;;;;5026932;28;20056;-82
2021/12/01 04:57:07;;;;;;;1.80;1.70;;;5.30;97.00;;;;;;5026807;28;20056;-80
2021/12/01 04:59:37;;;;;;;1.58;1.48;;;5.30;97.00;;;;;;5024199;28;20742;-81
2021/12/01 05:02:04;;;;;;;2.08;1.50;;;5.30;97.00;;;;;;5025526;28;20452;-81
2021/12/01 05:04:32;;;;;;;1.60;1.50;;;5.30;97.00;;;;;;5028549;28;20593;-81
2021/12/01 05:06:59;;;;;;;1.50;1.40;;;5.30;97.00;;;;;;5024012;28;20057;-81
2021/12/01 05:09:26;;;;;;;1.80;1.70;;;5.30;97.00;;;;;;5026717;28;20490;-81
2021/12/01 05:11:53;;;;;;;2.15;1.40;;;5.30;97.00;;;;;;5026604;28;20055;-83
2021/12/01 05:14:22;;;;;;;1.67;1.58;;;5.30;97.00;;;;;;5027716;28;20049;-80
2021/12/01 05:16:49;;;;;;;1.55;1.20;;;5.30;97.00;;;;;;5025033;28;20517;-81
2021/12/01 05:19:16;;;;;;;2.10;1.35;;;5.40;97.00;;;;;;5025528;28;20081;-81
2021/12/01 05:21:43;;;;;;;1.50;1.40;;;5.30;96.90;;;;;;5027635;28;20045;-81
2021/12/01 05:24:10;;;;;;;1.27;1.17;;;5.40;96.90;;;;;;5027655;28;20057;-81
2021/12/01 05:26:38;;;;;;;1.40;1.30;;;5.40;96.90;;;;;;5017463;28;20049;-80
2021/12/01 05:29:05;;;;;;;2.65;1.25;;;5.40;96.90;;;;;;5030740;28;20053;-82
2021/12/01 05:31:33;;;;;;;1.50;1.40;;;5.40;96.90;;;;;;5023108;28;20050;-81
2021/12/01 05:34:01;;;;;;;1.30;1.30;;;5.40;96.90;;;;;;5031318;28;20053;-81
2021/12/01 05:36:27;;;;;;;1.30;1.20;;;5.40;96.90;;;;;;5029893;28;20057;-81
2021/12/01 05:38:55;;;;;;;1.40;1.30;;;5.40;96.80;;;;;;5030737;28;20513;-81
2021/12/01 05:41:22;;;;;;;1.35;1.25;;;5.40;96.80;;;;;;5025082;28;20060;-82
2021/12/01 05:43:48;;;;;;;1.88;1.10;;;5.40;96.80;;;;;;5027583;28;20065;-80
2021/12/01 05:46:15;;;;;;;2.17;1.10;;;5.40;96.70;;;;;;5040569;28;20079;-80
2021/12/01 05:48:43;;;;;;;1.27;1.20;;;5.50;96.70;;;;;;5049551;28;20049;-81
2021/12/01 05:51:10;;;;;;;1.23;1.20;;;5.50;96.70;;;;;;5052730;28;20615;-80
2021/12/01 05:53:37;;;;;;;1.15;1.10;;;5.50;96.70;;;;;;5043837;28;20056;-81
2021/12/01 05:56:04;;;;;;;0.93;0.93;;;5.50;96.60;;;;;;5046985;28;20424;-80
2021/12/01 05:58:31;;;;;;;1.05;1.05;;;5.50;96.60;;;;;;5041460;28;20044;-80
2021/12/01 06:00:57;;;;;;;2.35;1.30;;;5.50;96.60;;;;;;5044718;28;20045;-81
2021/12/01 06:03:24;;;;;;;1.00;1.00;;;5.50;96.60;;;;;;5049553;28;20052;-81
2021/12/01 06:05:52;;;;;;;1.27;1.15;;;5.50;96.60;;;;;;5048103;28;20045;-81
2021/12/01 06:08:19;;;;;;;0.90;0.90;;;5.60;96.60;;;;;;5053958;28;20814;-82
2021/12/01 06:10:46;;;;;;;1.13;1.02;;;5.60;96.60;;;;;;5046071;28;20562;-81
2021/12/01 06:13:16;;;;;;;1.10;1.10;;;5.60;96.60;;;;;;5052203;28;20087;-82
2021/12/01 06:15:43;;;;;;;1.27;1.17;;;5.60;96.60;;;;;;5047015;28;20049;-81
2021/12/01 06:18:10;;;;;;;1.20;1.08;;;5.60;96.60;;;;;;5048967;28;20709;-81
2021/12/01 06:20:37;;;;;;;1.15;1.15;;;5.60;96.50;;;;;;5046520;28;20045;-81
2021/12/01 06:23:06;;;;;;;1.10;1.00;;;5.60;96.50;;;;;;5051114;28;20597;-84
2021/12/01 06:25:32;;;;;;;1.17;1.10;;;5.60;96.50;;;;;;5055196;28;20079;-83
2021/12/01 06:27:59;;;;;;;1.02;1.02;;;5.70;96.60;;;;;;5043211;28;20079;-82
2021/12/01 06:30:27;;;;;;;1.00;1.00;;;5.70;96.60;;;;;;5048379;28;20048;-81
2021/12/01 06:32:54;;;;;;;1.00;1.00;;;5.70;96.60;;;;;;5054105;28;20052;-81
2021/12/01 06:35:21;;;;;;;1.20;1.20;;;5.70;96.60;;;;;;5047293;28;20460;-83
2021/12/01 06:37:50;;;;;;;1.00;1.00;;;5.70;96.50;;;;;;5048337;28;20693;-80
2021/12/01 06:40:18;;;;;;;1.00;1.00;;;5.70;96.50;;;;;;5051328;28;20065;-81
2021/12/01 06:42:45;;;;;;;2.15;1.10;;;5.70;96.50;;;;;;5050537;28;20500;-81
2021/12/01 06:45:12;;;;;;;1.05;1.00;;;5.70;96.50;;;;;;5048491;28;20045;-81
2021/12/01 06:47:40;;;;;;;1.00;1.00;;;5.80;96.60;;;;;;5050995;28;20053;-82
2021/12/01 06:50:09;;;;;;;2.65;0.90;;;5.80;96.50;;;;;;5047142;28;20094;-82
2021/12/01 06:52:36;;;;;;;1.20;1.02;;;5.70;96.50;;;;;;5053071;28;20118;-82
2021/12/01 06:55:06;;;;;;;1.25;1.00;;;5.80;96.50;;;;;;5046142;28;20049;-82
2021/12/01 06:57:35;;;;;;;1.40;1.10;;;5.80;96.50;;;;;;5048811;28;20056;-82
2021/12/01 07:00:04;;;;;;;1.15;1.08;;;5.80;96.50;;;;;;5047485;28;20158;-81
2021/12/01 07:02:31;;;;;;;0.90;0.90;;;5.80;96.40;;;;;;5049835;28;20139;-81
2021/12/01 07:04:58;;;;;;;1.15;1.10;;;5.80;96.40;;;;;;5051559;28;20045;-82
2021/12/01 07:07:24;;;;;;;1.00;1.00;;;5.80;96.40;;;;;;5052900;28;20242;-81
2021/12/01 07:09:51;;;;;;;1.13;1.13;;;5.80;96.40;;;;;;5045536;28;20056;-83
2021/12/01 07:12:18;;;;;;;1.50;0.90;;;5.80;96.30;;;;;;5046380;28;20114;-82
2021/12/01 07:14:46;;;;;;;1.20;1.15;;;5.90;96.40;;;;;;5048935;28;20053;-81
2021/12/01 07:17:13;;;;;;;0.90;0.90;;;5.90;96.30;;;;;;5029042;28;20057;-81
2021/12/01 07:19:40;;;;;;;1.20;1.10;;;5.90;96.30;;;;;;5025296;28;20048;-82
2021/12/01 07:22:07;;;;;;;1.52;1.15;;;5.90;96.50;;;;;;5031329;28;20061;-82
2021/12/01 07:24:34;;;;;;;0.90;0.90;;;5.90;96.30;;;;;;5031590;28;20064;-85
2021/12/01 07:27:00;;;;;;;1.55;1.10;;;5.90;96.30;;;;;;5024104;28;20115;-80
2021/12/01 07:29:27;;;;;;;1.00;1.00;;;5.90;96.30;;;;;;5023695;28;20496;-81
2021/12/01 07:31:55;;;;;;;1.50;1.10;;;5.90;96.30;;;;;;5019029;28;20050;-81
2021/12/01 07:34:22;;;;;;;1.00;1.00;;;6.00;96.30;;;;;;5023781;28;20124;-81
2021/12/01 07:36:49;;;;;;;1.00;0.93;;;5.90;96.30;;;;;;5027108;28;20049;-82
2021/12/01 07:39:16;;;;;;;1.20;1.10;;;6.00;96.60;;;;;;5020777;28;20104;-81
2021/12/01 07:41:43;;;;;;;0.80;0.80;;;6.00;96.20;;;;;;5029468;28;20544;-81
2021/12/01 07:44:10;;;;;;;0.90;0.90;;;6.00;96.20;;;;;;5027355;28;20049;-81
2021/12/01 07:46:37;;;;;;;1.52;1.10;;;6.00;96.30;;;;;;5023430;28;20115;-81
2021/12/01 07:49:05;;;;;;;2.13;0.90;;;6.00;96.30;;;;;;5023311;28;20569;-83
2021/12/01 07:51:32;;;;;;;1.05;0.90;;;6.00;96.30;;;;;;5023560;28;20058;-81
2021/12/01 07:53:59;;;;;;;1.17;1.00;;;6.00;96.20;;;;;;5017534;28;20054;-78
2021/12/01 07:56:25;;;;;;;1.05;1.00;;;6.00;96.20;;;;;;5024085;28;20127;-79
2021/12/01 07:58:52;;;;;;;1.20;0.90;;;6.10;96.30;;;;;;5024116;28;20049;-79
2021/12/01 08:01:19;;;;;;;1.40;0.90;;;6.10;96.20;;;;;;5027682;28;20831;-78
2021/12/01 08:03:45;;;;;;;0.85;0.85;;;6.10;96.20;;;;;;5039381;28;20504;-79
2021/12/01 08:06:13;;;;;;;1.17;0.90;;;6.10;96.20;;;;;;5035462;28;20645;-79
2021/12/01 08:08:40;;;;;;;0.90;0.90;;;6.10;96.10;;;;;;5043120;28;20050;-79
2021/12/01 08:11:07;;;;;;;0.90;0.80;;;6.10;96.10;;;;;;5042298;28;20057;-78
2021/12/01 08:13:33;;;;;;;0.90;0.90;;;6.20;96.10;;;;;;5042324;28;20439;-79
2021/12/01 08:16:01;;;;;;;0.88;0.88;;;6.20;96.10;;;;;;5035838;28;20045;-78
2021/12/01 08:18:28;;;;;;;0.73;0.73;;;6.20;96.10;;;;;;5043258;28;20746;-79
2021/12/01 08:20:54;;;;;;;1.00;0.90;;;6.30;95.20;;;;;;5044041;28;20778;-79
2021/12/01 08:23:22;;;;;;;0.80;0.80;;;6.30;95.10;;;;;;5040190;28;20475;-78
2021/12/01 08:25:49;;;;;;;1.45;0.75;;;6.40;95.10;;;;;;5044101;28;20053;-77
2021/12/01 08:28:16;;;;;;;1.17;1.15;;;6.40;95.20;;;;;;5035359;28;20147;-79
2021/12/01 08:30:43;;;;;;;1.00;1.00;;;6.40;95.30;;;;;;5035491;28;20347;-77
2021/12/01 08:33:10;;;;;;;1.45;1.35;;;6.40;95.30;;;;;;5043400;28;20053;-79
2021/12/01 08:35:36;;;;;;;1.05;1.00;;;6.40;95.30;;;;;;5043015;28;20098;-80
2021/12/01 08:38:03;;;;;;;1.23;0.82;;;6.40;95.30;;;;;;5041888;28;20053;-79
2021/12/01 08:40:31;;;;;;;0.90;0.90;;;6.50;95.40;;;;;;5039661;28;20045;-77
2021/12/01 08:42:58;;;;;;;0.70;0.70;;;6.40;95.40;;;;;;5044536;28;20044;-77
2021/12/01 08:45:25;;;;;;;0.70;0.70;;;6.50;95.50;;;;;;5042339;28;20103;-80
2021/12/01 08:47:52;;;;;;;0.80;0.80;;;6.50;95.50;;;;;;5042954;28;20052;-78
2021/12/01 08:50:18;;;;;;;0.80;0.80;;;6.50;95.50;;;;;;5039032;28;20052;-80
2021/12/01 08:52:47;;;;;;;1.25;0.90;;;6.50;95.50;;;;;;5043871;28;20056;-77
2021/12/01 08:55:14;;;;;;;0.80;0.80;;;6.50;95.60;;;;;;5042990;28;20419;-78
2021/12/01 08:57:43;;;;;;;0.80;0.80;;;6.50;95.60;;;;;;5043265;28;20052;-78
2021/12/01 09:00:11;;;;;;;0.88;0.85;;;6.50;95.60;;;;;;5042198;28;20541;-79
2021/12/01 09:02:38;;;;;;;0.70;0.70;;;6.50;95.60;;;;;;5042814;28;20053;-80
2021/12/01 09:05:05;;;;;;;0.75;0.75;;;6.60;95.60;;;;;;5042496;28;20056;-79
2021/12/01 09:07:32;;;;;;;0.95;0.90;;;6.60;95.50;;;;;;5041791;28;20061;-78
2021/12/01 09:09:59;;;;;;;0.80;0.80;;;6.60;95.50;;;;;;5042575;28;20045;-79
2021/12/01 09:12:26;;;;;;;0.70;0.70;;;6.60;95.50;;;;;;5045535;28;20616;-78
2021/12/01 09:14:55;;;;;;;0.80;0.80;;;6.60;95.50;;;;;;5039808;28;20059;-80
2021/12/01 09:17:22;;;;;;;0.95;0.95;;;6.60;95.50;;;;;;5038376;28;20044;-79
2021/12/01 09:19:49;;;;;;;1.20;0.90;;;6.70;95.50;;;;;;5044511;28;20539;-78
2021/12/01 09:22:16;;;;;;;0.82;0.82;;;6.60;95.50;;;;;;5043998;28;20060;-79
2021/12/01 09:24:43;;;;;;;0.73;0.73;;;6.70;95.50;;;;;;5042857;28;20551;-79
2021/12/01 09:27:10;;;;;;;1.42;0.80;;;6.70;95.50;;;;;;5045322;28;20056;-79
2021/12/01 09:29:37;;;;;;;0.70;0.70;;;6.70;95.40;;;;;;5040399;28;20049;-79
2021/12/01 09:32:07;;;;;;;0.88;0.88;;;6.70;95.40;;;;;;5041735;28;20049;-80
2021/12/01 09:34:34;;;;;;;0.70;0.70;;;6.80;95.40;;;;;;5051897;28;20053;-80
2021/12/01 09:37:01;;;;;;;0.60;0.60;;;6.70;95.30;;;;;;5053702;28;20580;-81
2021/12/01 09:39:27;;;;;;;2.03;0.80;;;6.80;95.30;;;;;;5051836;28;20049;-80
2021/12/01 09:41:55;;;;;;;0.82;0.77;;;6.80;95.30;;;;;;5050252;28;20056;-80
2021/12/01 09:44:23;;;;;;;0.88;0.88;;;6.80;95.20;;;;;;5052098;28;20049;-79
2021/12/01 09:46:50;;;;;;;0.90;0.90;;;6.80;95.60;;;;;;5051931;28;20044;-81
2021/12/01 09:49:18;;;;;;;1.27;0.68;;;6.80;95.20;;;;;;5053311;28;20053;-80
2021/12/01 09:51:45;;;;;;;1.25;0.90;;;6.80;95.20;;;;;;5048856;28;20048;-80
2021/12/01 09:54:12;;;;;;;0.77;0.77;;;6.90;95.20;;;;;;5052130;28;20045;-79
2021/12/01 09:56:38;;;;;;;1.20;0.75;;;6.80;95.10;;;;;;5050343;28;20048;-80
2021/12/01 09:59:05;;;;;;;0.98;0.93;;;6.90;95.00;;;;;;5049471;28;20045;-80
2021/12/01 10:01:32;;;;;;;0.70;0.70;;;6.90;95.30;;;;;;5050219;28;20410;-80
2021/12/01 10:04:00;;;;;;;0.80;0.80;;;6.90;95.00;;;;;;5052554;28;20063;-80
2021/12/01 10:06:29;;;;;;;0.80;0.80;;;7.00;94.90;;;;;;5049027;28;20087;-79
2021/12/01 10:09:00;;;;;;;0.80;0.80;;;7.00;94.90;;;;;;5050981;28;20052;-80
2021/12/01 10:11:30;;;;;;;0.60;0.60;;;7.00;94.80;;;;;;5051021;28;20480;-80
2021/12/01 10:13:59;;;;;;;0.80;0.60;;;7.00;94.90;;;;;;5050750;28;20045;-79
2021/12/01 10:16:28;;;;;;;0.60;0.60;;;7.00;94.90;;;;;;5048432;28;20056;-81
2021/12/01 10:18:56;;;;;;;0.63;0.63;;;7.10;95.00;;;;;;5052023;28;20053;-80
2021/12/01 10:21:24;;;;;;;0.70;0.70;;;7.00;94.90;;;;;;5055330;28;20045;-80
2021/12/01 10:23:55;;;;;;;1.25;0.77;;;7.10;95.00;;;;;;5050380;28;20060;-80
2021/12/01 10:26:25;;;;;;;0.75;0.75;;;7.10;95.00;;;;;;5048548;28;20049;-80
2021/12/01 10:28:55;;;;;;;0.80;0.75;;;7.10;95.00;;;;;;5039014;28;20065;-79
2021/12/01 10:31:35;;;;;;;0.60;0.60;;;7.10;95.00;;;;;;5048809;28;20112;-80
2021/12/01 10:34:25;;;;;;;0.90;0.90;;;7.20;95.10;;;;;;5048533;28;20051;-78
2021/12/01 10:37:07;;;;;;;0.65;0.65;;;7.20;95.10;;;;;;5044244;28;20099;-79
2021/12/01 10:39:35;;;;;;;0.70;0.70;;;7.20;95.20;;;;;;5044516;28;20056;-80
2021/12/01 10:42:04;;;;;;;1.13;0.70;;;7.20;95.20;;;;;;5047430;28;20056;-79
2021/12/01 10:44:31;;;;;;;0.70;0.70;;;7.20;95.20;;;;;;5040792;28;20053;-79
2021/12/01 10:46:58;;;;;;;0.60;0.60;;;7.20;95.30;;;;;;5042762;28;20068;-80
2021/12/01 10:49:33;;;;;;;0.70;0.70;;;7.20;95.30;;;;;;5046962;28;20072;-79
2021/12/01 10:52:01;;;;;;;0.80;0.80;;;7.20;95.30;;;;;;5047387;28;20424;-80
2021/12/01 10:54:27;;;;;;;0.90;0.90;;;7.20;95.30;;;;;;5042996;28;20060;-81
2021/12/01 10:57:21;;;;;;;0.88;0.88;;;7.20;95.30;;;;;;5046394;28;20053;-79
2021/12/01 10:59:49;;;;;;;1.65;0.88;;;7.30;95.30;;;;;;5046782;28;20818;-79
2021/12/01 11:02:16;;;;;;;0.70;0.70;;;7.30;95.30;;;;;;5044449;28;20087;-79
2021/12/01 11:04:44;;;;;;;0.75;0.75;;;7.30;95.40;;;;;;5048292;28;20049;-79
2021/12/01 11:07:25;;;;;;;0.70;0.70;;;7.30;95.40;;;;;;5041321;28;20056;-81
2021/12/01 11:10:14;;;;;;;1.05;1.00;;;7.30;95.40;;;;;;5048982;28;20045;-78
2021/12/01 11:12:43;;;;;;;0.80;0.80;;;7.30;95.40;;;;;;5045012;28;20132;-78
2021/12/01 11:15:21;;;;;;;0.77;0.77;;;7.30;95.40;;;;;;5040458;28;20524;-78
2021/12/01 11:17:49;;;;;;;0.80;0.80;;;7.30;95.40;;;;;;5043469;28;20052;-78
2021/12/01 11:20:44;;;;;;;0.80;0.80;;;7.40;95.40;;;;;;5043824;28;20052;-79
2021/12/01 11:23:17;;;;;;;0.82;0.82;;;7.40;95.40;;;;;;5044953;28;20052;-79
2021/12/01 11:25:46;;;;;;;0.80;0.80;;;7.40;95.50;;;;;;5045204;28;20045;-79
2021/12/01 11:28:16;;;;;;;1.50;0.90;;;7.40;95.50;;;;;;5043192;28;20068;-80
2021/12/01 11:30:46;;;;;;;0.90;0.90;;;7.40;95.50;;;;;;5044972;28;20044;-79
2021/12/01 11:33:16;;;;;;;1.10;0.95;;;7.40;95.50;;;;;;5049342;28;20057;-82
2021/12/01 11:35:44;;;;;;;1.23;0.80;;;7.40;95.50;;;;;;5042750;28;20053;-80
2021/12/01 11:38:12;;;;;;;0.88;0.88;;;7.40;95.60;;;;;;5043920;28;20061;-78
2021/12/01 11:40:40;;;;;;;0.90;0.90;;;7.40;95.60;;;;;;5048256;28;20049;-79
2021/12/01 11:43:09;;;;;;;0.82;0.80;;;7.50;95.70;;;;;;5050700;28;20041;-80
2021/12/01 11:45:38;;;;;;;0.90;0.70;;;7.50;95.80;;;;;;5043621;28;20056;-78
2021/12/01 11:48:09;;;;;;;0.73;0.73;;;7.50;95.80;;;;;;5041259;28;20467;-78
2021/12/01 11:50:59;;;;;;;0.95;0.95;;;7.50;95.80;;;;;;5046379;28;20053;-80
2021/12/01 11:53:33;;;;;;;0.80;0.80;;;7.50;95.90;;;;;;5039440;28;20045;-80
2021/12/01 11:56:03;;;;;;;0.70;0.70;;;7.50;95.90;;;;;;5046076;28;20053;-79
2021/12/01 11:58:56;;;;;;;0.70;0.70;;;7.50;95.90;;;;;;5044742;28;20459;-79
2021/12/01 12:01:57;;;;;;;0.90;0.90;;;7.50;95.90;;;;;;5037725;28;20045;-79
2021/12/01 12:04:46;;;;;;;0.70;0.70;;;7.60;96.00;;;;;;5049767;28;20643;-80
2021/12/01 12:10:33;;;;;;;0.82;0.82;;;7.60;96.00;;;;;;5028657;28;20045;-80
2021/12/01 12:13:03;;;;;;;0.95;0.90;;;7.60;96.00;;;;;;5047619;28;20048;-78
2021/12/01 12:15:39;;;;;;;0.90;0.90;;;7.60;96.00;;;;;;5040141;28;20045;-77
2021/12/01 12:18:09;;;;;;;1.27;0.80;;;7.60;96.00;;;;;;5044401;28;20109;-78
2021/12/01 12:20:42;;;;;;;1.25;0.93;;;7.60;96.00;;;;;;5042921;28;20053;-78
2021/12/01 12:23:10;;;;;;;0.93;0.80;;;7.60;96.10;;;;;;5044661;28;20456;-79
2021/12/01 12:25:50;;;;;;;0.80;0.80;;;7.60;96.10;;;;;;5046370;28;20076;-78
2021/12/01 12:28:22;;;;;;;0.80;0.80;;;7.70;96.10;;;;;;5042715;28;20053;-79
2021/12/01 12:30:50;;;;;;;0.60;0.60;;;7.70;96.10;;;;;;5041208;28;20049;-77
2021/12/01 12:33:21;;;;;;;0.90;0.90;;;7.70;96.10;;;;;;5036787;28;20420;-77
2021/12/01 12:35:49;;;;;;;0.90;0.90;;;7.70;96.00;;;;;;5041843;28;20045;-78
2021/12/01 12:38:16;;;;;;;1.05;0.98;;;7.70;96.00;;;;;;5035643;28;20060;-77
2021/12/01 12:40:44;;;;;;;1.10;1.00;;;7.80;96.00;;;;;;5039533;28;20968;-78
2021/12/01 12:43:13;;;;;;;1.02;1.00;;;7.80;96.00;;;;;;5042590;28;20052;-77
2021/12/01 12:45:42;;;;;;;1.00;1.00;;;7.80;96.00;;;;;;5037229;28;20053;-77
2021/12/01 12:48:27;;;;;;;0.90;0.90;;;7.80;96.00;;;;;;5042898;28;20496;-77
2021/12/01 12:51:09;;;;;;;1.00;1.00;;;7.80;96.00;;;;;;5043347;28;20052;-79
2021/12/01 12:53:36;;;;;;;1.55;0.88;;;7.80;96.00;;;;;;5031000;28;20053;-78
2021/12/01 12:56:24;;;;;;;1.02;0.90;;;7.80;96.00;;;;;;5040130;28;20049;-77
2021/12/01 12:58:51;;;;;;;1.27;0.80;;;7.80;96.00;;;;;;5039902;28;20139;-78
2021/12/01 13:01:24;;;;;;;0.88;0.88;;;7.80;96.10;;;;;;5035120;28;20386;-78
2021/12/01 13:03:54;;;;;;;1.15;0.90;;;7.90;96.10;;;;;;5042000;28;20131;-78
2021/12/01 13:06:29;;;;;;;0.90;0.90;;;7.80;96.10;;;;;;5042695;28;20075;-79
2021/12/01 13:09:14;;;;;;;1.42;0.80;;;7.80;96.10;;;;;;5042382;28;20057;-78
2021/12/01 13:11:40;;;;;;;0.93;0.93;;;7.90;96.20;;;;;;5036851;28;20048;-77
2021/12/01 13:14:07;;;;;;;0.95;0.90;;;7.90;96.20;;;;;;5040742;28;20049;-78